메인 페이지
METAR-TAF:

METAR-TAF

공항 :

에스비에르, 덴마크

위도: 55-32N, 경도: 008-34E, 고도: 30m

현재 날씨관측

예보는 12분 전, 07:50시(UTC)에 발표되었습니다.
남남동7kt남동풍과 남남서풍을 오가는
온도 19°C
습도 88%
기압 1012 hPa
시정 10km 이상

METAR: EKEB 230750Z AUTO 16007KT 140V200 9999 SCT007/// SCT096/// SCT100/// 19/17 Q1012

시각: 10:02 (08:02 UTC)

예보

예보는 2 시간 53분 전, 05:09시(UTC)에 발표되었습니다.
예보 대상 시간: 23일 06시부터 23일 15시까지 (UTC)
동남동6kt
시정 10km 이상
고도 3000ft 상공 구름 보통
일시적
23일 06시부터 23일 12시까지 (UTC)
시정: 4000m
고도 800ft 상공 구름 많음
고도 2000ft 상공 구름 보통, 적란운.
소나기
확률 40% :
일시적
23일 06시부터 23일 12시까지 (UTC)
뇌우, 비
일시적
23일 12시부터 23일 15시까지 (UTC)
고도 1200ft 상공 구름 많음
고도 2000ft 상공 구름 조금, 적란운.

TAF: EKEB 230509Z 2306/2315 12006KT 9999 SCT030 TEMPO 2306/2312 4000 SHRA BKN008 SCT020CB PROB40 TEMPO 2306/2312 TSRA TEMPO 2312/2315 BKN012 FEW020CB

4,000개 이상의 공항 관측 자료 및 예보 (METAR 및 TAF 보고).

지도상에서 검색 가능한 기상관측소가 노란 점과 빨간 점으로 표시되어 있습니다.

기상관측소 명을 보려면 표시 위로 마우스를 이동하세요.

날씨 관측과 예보를 보려면 클릭하세요.

지도 변경 : 확대하려면 엑스 표시가 있는 녹색 버튼, 축소하려면 빼기 표시가 있는 녹색 버튼, 다음 페이지의 지도를 보려면 녹색 화살표를 클릭하세요.


METAR-TAF: